Terminal Aerodrome Forecast
Issued by NWS Des Moines, IA

Home | Current Version | Previous Version | Text Only | Print | Product List | Glossary On
Versions: 1 2 3 4 5 6 7 8 9 10 11 12 13 14 15 16 17 18 19 20 21 22 23 24 25 26 27 28 29 30 31 32
000
FTUS43 KDMX 011136
TAFALO
TAF
KALO 011136Z 0112/0212 14011KT P6SM VCSH BKN015 OVC080
      TEMPO 0113/0116 4SM -RA BR BKN008 OVC025
     FM011600 15011KT 5SM -RA BR VCTS BKN010CB OVC028
     FM012100 14008KT P6SM FEW009 SCT016 BKN030
     FM020300 VRB03KT 2SM BR BKN006=

USA.gov is the U.S. government's official web portal to all federal, state and local government web resources and services.